Time;durP1;ratioP1;P1;durP2;ratioP2;P2;SDS_P1;SDS_P2;PMS_P1;PMS_P2;Temp;Humidity;BMP_temperature;BMP_pressure;BME280_temperature;BME280_humidity;BME280_pressure;Samples;Min_cycle;Max_cycle;Signal;HPM_P1;HPM_P2
2021/10/05 00:01:58;;;;;;;12.60;6.87;;;13.20;99.90;;;;;;4173939;28;20216;-79
2021/10/05 00:04:01;;;;;;;11.70;6.37;;;13.20;99.90;;;;;;4179045;28;20263;-79
2021/10/05 00:06:05;;;;;;;10.40;6.27;;;13.20;99.90;;;;;;4183023;28;20202;-77
2021/10/05 00:08:07;;;;;;;9.93;6.20;;;13.20;99.90;;;;;;4179130;28;20210;-79
2021/10/05 00:10:11;;;;;;;12.00;6.60;;;13.20;99.90;;;;;;4179315;28;20284;-78
2021/10/05 00:12:13;;;;;;;11.07;6.87;;;13.20;99.90;;;;;;4180461;28;20215;-77
2021/10/05 00:14:14;;;;;;;12.47;6.63;;;13.20;99.90;;;;;;4177950;28;20211;-79
2021/10/05 00:16:16;;;;;;;12.17;7.47;;;13.20;99.90;;;;;;4182280;28;20214;-79
2021/10/05 00:18:18;;;;;;;12.40;7.43;;;13.20;99.90;;;;;;4179919;28;20654;-78
2021/10/05 00:20:20;;;;;;;12.03;7.23;;;13.20;99.90;;;;;;4183242;28;20758;-77
2021/10/05 00:22:21;;;;;;;12.10;7.20;;;13.20;99.90;;;;;;4188162;28;20266;-78
2021/10/05 00:24:23;;;;;;;13.07;7.97;;;13.20;99.90;;;;;;4187609;28;20271;-78
2021/10/05 00:26:26;;;;;;;13.40;7.57;;;13.20;99.90;;;;;;4184979;28;20214;-77
2021/10/05 00:28:28;;;;;;;14.63;8.33;;;13.20;99.90;;;;;;4185987;28;20209;-78
2021/10/05 00:30:30;;;;;;;16.23;8.10;;;13.20;99.90;;;;;;4198847;28;20237;-77
2021/10/05 00:32:32;;;;;;;13.20;7.50;;;13.20;99.90;;;;;;4171902;28;20214;-77
2021/10/05 00:34:34;;;;;;;13.33;7.97;;;13.20;99.90;;;;;;4185737;28;20202;-77
2021/10/05 00:36:36;;;;;;;13.70;8.40;;;13.20;99.90;;;;;;4186910;28;20214;-77
2021/10/05 00:38:38;;;;;;;15.17;8.17;;;13.20;99.90;;;;;;4191216;28;20214;-77
2021/10/05 00:40:39;;;;;;;15.10;8.90;;;13.20;99.90;;;;;;4245561;23;20768;-80
2021/10/05 00:42:44;;;;;;;14.73;8.50;;;13.20;99.90;;;;;;4150117;28;20216;-80
2021/10/05 00:44:48;;;;;;;13.77;8.57;;;13.20;99.90;;;;;;4147972;28;20246;-80
2021/10/05 00:46:50;;;;;;;12.90;8.63;;;13.20;99.90;;;;;;4150651;28;20218;-80
2021/10/05 00:48:52;;;;;;;13.40;8.70;;;13.20;99.90;;;;;;4150366;28;20213;-80
2021/10/05 00:50:54;;;;;;;13.50;8.17;;;13.20;99.90;;;;;;4136202;28;20275;-80
2021/10/05 00:52:56;;;;;;;15.37;8.83;;;13.20;99.90;;;;;;4146156;28;20215;-80
2021/10/05 00:54:58;;;;;;;16.47;9.10;;;13.20;99.90;;;;;;4161952;28;20207;-80
2021/10/05 00:57:00;;;;;;;14.67;9.10;;;13.20;99.90;;;;;;4165788;28;20668;-80
2021/10/05 00:59:03;;;;;;;14.77;8.90;;;13.20;99.90;;;;;;4141522;28;20266;-80
2021/10/05 01:01:04;;;;;;;13.77;8.73;;;13.20;99.90;;;;;;4133634;28;20282;-80
2021/10/05 01:03:06;;;;;;;14.67;9.17;;;13.20;99.90;;;;;;4132674;28;20223;-80
2021/10/05 01:05:08;;;;;;;16.53;9.57;;;13.20;99.90;;;;;;4135453;28;20208;-81
2021/10/05 01:07:12;;;;;;;15.43;9.33;;;13.20;99.90;;;;;;4143480;28;20262;-80
2021/10/05 01:09:15;;;;;;;15.60;9.87;;;13.20;99.90;;;;;;4149302;28;20238;-80
2021/10/05 01:11:17;;;;;;;16.17;10.00;;;13.20;99.90;;;;;;4146733;28;20236;-80
2021/10/05 01:13:18;;;;;;;17.63;9.77;;;13.10;99.90;;;;;;4137559;28;20683;-80
2021/10/05 01:15:24;;;;;;;17.17;9.57;;;13.20;99.90;;;;;;4137179;28;20215;-81
2021/10/05 01:17:26;;;;;;;17.13;9.80;;;13.20;99.90;;;;;;4150805;28;20682;-80
2021/10/05 01:19:28;;;;;;;14.43;9.40;;;13.20;99.90;;;;;;4160095;28;20219;-80
2021/10/05 01:21:31;;;;;;;14.23;9.03;;;13.20;99.90;;;;;;4151956;28;20227;-80
2021/10/05 01:23:33;;;;;;;15.30;10.20;;;13.20;99.90;;;;;;4152520;28;20212;-80
2021/10/05 01:25:35;;;;;;;13.63;9.03;;;13.20;99.90;;;;;;4145697;28;20212;-80
2021/10/05 01:27:42;;;;;;;16.23;9.70;;;13.20;99.90;;;;;;4158285;28;20212;-80
2021/10/05 01:29:44;;;;;;;14.67;9.03;;;13.20;99.90;;;;;;4144711;28;20232;-80
2021/10/05 01:31:48;;;;;;;14.87;9.43;;;13.20;99.90;;;;;;4148464;28;20208;-80
2021/10/05 01:33:50;;;;;;;14.73;9.47;;;13.10;99.90;;;;;;4151726;28;20208;-80
2021/10/05 01:35:52;;;;;;;16.43;10.10;;;13.20;99.90;;;;;;4148113;28;20632;-80
2021/10/05 01:37:55;;;;;;;14.77;9.47;;;13.20;99.90;;;;;;4156597;28;20207;-81
2021/10/05 01:39:57;;;;;;;15.17;9.37;;;13.20;99.90;;;;;;4149977;28;20242;-80
2021/10/05 01:42:01;;;;;;;17.50;10.17;;;13.20;99.90;;;;;;4142927;28;20220;-80
2021/10/05 01:44:03;;;;;;;18.13;9.77;;;13.20;99.90;;;;;;4152137;28;20267;-81
2021/10/05 01:46:11;;;;;;;16.00;9.90;;;13.20;99.90;;;;;;4151405;28;20212;-80
2021/10/05 01:48:13;;;;;;;16.77;10.47;;;13.30;99.90;;;;;;4142531;28;20298;-80
2021/10/05 01:50:15;;;;;;;15.40;9.70;;;13.20;99.90;;;;;;4160320;28;20233;-81
2021/10/05 01:52:17;;;;;;;14.83;9.37;;;13.20;99.90;;;;;;4156938;28;20197;-80
2021/10/05 01:54:20;;;;;;;16.23;10.50;;;13.10;99.90;;;;;;4149320;28;20212;-81
2021/10/05 01:56:22;;;;;;;16.67;9.73;;;13.10;99.90;;;;;;4153013;28;20282;-80
2021/10/05 01:58:24;;;;;;;16.23;9.60;;;13.10;99.90;;;;;;4149059;28;20260;-81
2021/10/05 02:00:25;;;;;;;16.97;9.77;;;13.10;99.90;;;;;;4149304;28;20638;-80
2021/10/05 02:02:27;;;;;;;16.23;10.53;;;13.10;99.90;;;;;;4149833;28;20658;-80
2021/10/05 02:04:29;;;;;;;18.73;10.23;;;13.10;99.90;;;;;;4142229;28;20335;-80
2021/10/05 02:06:31;;;;;;;15.83;10.20;;;13.10;99.90;;;;;;4137191;28;20213;-80
2021/10/05 02:08:33;;;;;;;18.33;10.40;;;13.10;99.90;;;;;;4135979;28;20219;-80
2021/10/05 02:10:37;;;;;;;16.17;9.97;;;13.10;99.90;;;;;;4148881;28;20238;-81
2021/10/05 02:12:39;;;;;;;16.83;9.83;;;13.10;99.90;;;;;;4154710;28;20218;-81
2021/10/05 02:14:40;;;;;;;16.47;10.40;;;13.10;99.90;;;;;;4154161;28;20594;-81
2021/10/05 02:16:42;;;;;;;17.13;10.10;;;13.10;99.90;;;;;;4154286;28;20212;-80
2021/10/05 02:18:46;;;;;;;18.13;10.17;;;13.10;99.90;;;;;;4148418;28;20262;-80
2021/10/05 02:20:48;;;;;;;19.37;10.43;;;13.10;99.90;;;;;;4136707;28;20323;-81
2021/10/05 02:22:49;;;;;;;16.07;10.37;;;13.10;99.90;;;;;;4135284;28;20690;-81
2021/10/05 02:24:50;;;;;;;18.67;9.83;;;13.10;99.90;;;;;;4148981;28;20210;-81
2021/10/05 02:26:56;;;;;;;17.73;10.13;;;13.10;99.90;;;;;;4149491;28;20295;-80
2021/10/05 02:28:58;;;;;;;17.23;10.43;;;13.10;99.90;;;;;;4143972;28;20214;-80
2021/10/05 02:30:59;;;;;;;15.57;9.80;;;13.10;99.90;;;;;;4154278;28;20226;-80
2021/10/05 02:33:01;;;;;;;16.47;10.00;;;13.10;99.90;;;;;;4143810;28;20216;-80
2021/10/05 02:35:04;;;;;;;18.47;10.67;;;13.10;99.90;;;;;;4153979;28;20234;-80
2021/10/05 02:37:06;;;;;;;15.77;10.50;;;13.10;99.90;;;;;;4151061;28;20219;-80
2021/10/05 02:39:08;;;;;;;20.70;10.53;;;13.10;99.90;;;;;;4149774;28;20547;-80
2021/10/05 02:41:10;;;;;;;19.10;10.03;;;13.10;99.90;;;;;;4137235;28;20239;-80
2021/10/05 02:43:13;;;;;;;16.97;10.67;;;13.00;99.90;;;;;;4135256;28;20208;-80
2021/10/05 02:45:14;;;;;;;16.73;10.70;;;13.00;99.90;;;;;;4136114;28;20273;-80
2021/10/05 02:47:16;;;;;;;18.40;10.37;;;13.10;99.90;;;;;;4148815;28;20249;-80
2021/10/05 02:49:18;;;;;;;16.20;10.60;;;13.00;99.90;;;;;;4147361;28;20697;-80
2021/10/05 02:51:20;;;;;;;15.10;10.23;;;13.00;99.90;;;;;;4151858;28;20203;-80
2021/10/05 02:53:22;;;;;;;16.57;9.97;;;13.00;99.90;;;;;;4151527;28;20230;-80
2021/10/05 02:55:24;;;;;;;15.13;9.53;;;13.00;99.90;;;;;;4147851;28;20216;-80
2021/10/05 02:57:25;;;;;;;15.53;9.47;;;13.00;99.90;;;;;;4148065;28;20209;-79
2021/10/05 02:59:29;;;;;;;17.97;9.87;;;13.00;99.90;;;;;;4163837;28;20558;-79
2021/10/05 03:01:30;;;;;;;14.50;9.33;;;13.00;99.90;;;;;;4151811;28;20705;-80
2021/10/05 03:03:32;;;;;;;14.23;9.07;;;12.90;99.90;;;;;;4150103;28;20266;-80
2021/10/05 03:05:34;;;;;;;14.03;9.17;;;12.90;99.90;;;;;;4145640;28;20216;-80
2021/10/05 03:07:36;;;;;;;13.20;8.73;;;13.00;99.90;;;;;;4149491;28;20639;-79
2021/10/05 03:09:38;;;;;;;12.30;8.27;;;12.90;99.90;;;;;;4139817;28;20228;-79
2021/10/05 03:11:39;;;;;;;12.57;8.00;;;12.90;99.90;;;;;;4143188;28;20206;-79
2021/10/05 03:13:41;;;;;;;12.80;8.40;;;12.90;99.90;;;;;;4141103;28;20602;-79
2021/10/05 03:15:45;;;;;;;14.10;8.37;;;12.90;99.90;;;;;;4140672;28;20486;-80
2021/10/05 03:17:46;;;;;;;12.63;8.17;;;12.90;99.90;;;;;;4145734;28;20212;-79
2021/10/05 03:19:48;;;;;;;12.47;7.93;;;12.90;99.90;;;;;;4143468;28;20231;-80
2021/10/05 03:21:50;;;;;;;12.10;7.73;;;12.90;99.90;;;;;;4144443;28;20290;-80
2021/10/05 03:23:52;;;;;;;12.37;8.17;;;12.90;99.90;;;;;;4144488;28;20223;-80
2021/10/05 03:25:53;;;;;;;11.27;7.00;;;12.90;99.90;;;;;;4143364;28;20271;-79
2021/10/05 03:27:55;;;;;;;11.57;7.37;;;12.90;99.90;;;;;;4134428;28;20267;-79
2021/10/05 03:29:57;;;;;;;10.87;7.13;;;12.90;99.90;;;;;;4132805;28;20233;-80
2021/10/05 03:32:00;;;;;;;10.23;6.67;;;12.90;99.90;;;;;;4149935;28;20650;-80
2021/10/05 03:34:02;;;;;;;12.53;6.77;;;12.90;99.90;;;;;;4168082;28;20215;-80
2021/10/05 03:36:04;;;;;;;9.63;6.17;;;12.90;99.90;;;;;;4151604;28;20747;-79
2021/10/05 03:38:06;;;;;;;10.50;6.40;;;12.90;99.90;;;;;;4132727;28;20303;-80
2021/10/05 03:40:09;;;;;;;11.57;6.27;;;12.80;99.90;;;;;;4141094;28;20240;-80
2021/10/05 03:42:11;;;;;;;10.53;6.63;;;12.80;99.90;;;;;;4138478;28;20294;-79
2021/10/05 03:44:12;;;;;;;10.43;6.23;;;12.80;99.90;;;;;;4148097;28;20219;-80
2021/10/05 03:46:14;;;;;;;9.40;6.07;;;12.80;99.90;;;;;;4153513;28;20242;-79
2021/10/05 03:48:18;;;;;;;10.97;6.67;;;12.80;99.90;;;;;;4160785;28;20662;-79
2021/10/05 03:50:19;;;;;;;9.50;6.30;;;12.80;99.90;;;;;;4130653;28;20249;-79
2021/10/05 03:52:22;;;;;;;9.83;6.40;;;12.80;99.90;;;;;;4130412;28;20208;-79
2021/10/05 03:54:23;;;;;;;10.40;6.00;;;12.80;99.90;;;;;;4137355;28;20220;-80
2021/10/05 03:56:25;;;;;;;9.33;6.20;;;12.80;99.90;;;;;;4154567;28;20208;-80
2021/10/05 03:58:28;;;;;;;9.17;5.70;;;12.80;99.90;;;;;;4156798;28;20203;-79
2021/10/05 04:00:29;;;;;;;9.47;6.20;;;12.80;99.90;;;;;;4157454;28;20277;-79
2021/10/05 04:02:31;;;;;;;9.00;5.57;;;12.80;99.90;;;;;;4148612;28;20235;-79
2021/10/05 04:04:34;;;;;;;10.93;6.33;;;12.80;99.90;;;;;;4153396;28;20211;-79
2021/10/05 04:06:37;;;;;;;11.50;5.73;;;12.80;99.90;;;;;;4145811;28;20631;-81
2021/10/05 04:08:39;;;;;;;7.73;5.33;;;12.80;99.90;;;;;;4153423;28;20220;-79
2021/10/05 04:10:40;;;;;;;9.03;5.90;;;12.80;99.90;;;;;;4135327;28;20268;-80
2021/10/05 04:12:42;;;;;;;9.87;6.17;;;12.80;99.90;;;;;;4143067;28;20211;-79
2021/10/05 04:14:44;;;;;;;9.07;5.30;;;12.80;99.90;;;;;;4146926;28;20290;-79
2021/10/05 04:16:46;;;;;;;9.83;5.90;;;12.70;99.90;;;;;;4148965;28;20208;-80
2021/10/05 04:18:48;;;;;;;9.50;5.40;;;12.70;99.90;;;;;;4145356;28;20203;-79
2021/10/05 04:20:51;;;;;;;9.43;5.83;;;12.70;99.90;;;;;;4145357;28;20235;-79
2021/10/05 04:22:53;;;;;;;9.67;5.80;;;12.70;99.90;;;;;;4137833;28;20286;-80
2021/10/05 04:24:55;;;;;;;11.03;5.90;;;12.70;99.90;;;;;;4139487;28;20292;-80
2021/10/05 04:26:56;;;;;;;9.47;5.60;;;12.70;99.90;;;;;;4143194;28;20207;-79
2021/10/05 04:28:58;;;;;;;10.20;5.63;;;12.70;99.90;;;;;;4141352;28;20242;-79
2021/10/05 04:31:00;;;;;;;10.37;5.60;;;12.70;99.90;;;;;;4135775;28;20523;-80
2021/10/05 04:33:02;;;;;;;10.70;5.83;;;12.70;99.90;;;;;;4140094;28;20276;-79
2021/10/05 04:35:05;;;;;;;9.17;5.70;;;12.70;99.90;;;;;;4142513;28;20209;-79
2021/10/05 04:37:08;;;;;;;10.27;5.63;;;12.70;99.90;;;;;;4130867;28;20207;-80
2021/10/05 04:39:10;;;;;;;8.87;5.10;;;12.70;99.90;;;;;;4130011;28;20239;-79
2021/10/05 04:41:11;;;;;;;9.50;5.37;;;12.70;99.90;;;;;;4134811;28;20644;-79
2021/10/05 04:43:13;;;;;;;12.00;5.43;;;12.60;99.90;;;;;;4146858;28;20263;-79
2021/10/05 04:45:15;;;;;;;11.20;5.37;;;12.60;99.90;;;;;;4144989;28;20237;-79
2021/10/05 04:47:17;;;;;;;11.63;5.53;;;12.60;99.90;;;;;;4141281;28;20217;-79
2021/10/05 04:49:18;;;;;;;9.57;5.33;;;12.60;99.90;;;;;;4139083;28;20736;-80
2021/10/05 04:51:20;;;;;;;9.57;5.10;;;12.60;99.90;;;;;;4149284;28;20222;-79
2021/10/05 04:53:23;;;;;;;10.37;5.63;;;12.60;99.90;;;;;;4142780;28;20254;-80
2021/10/05 04:55:25;;;;;;;10.57;5.53;;;12.50;99.90;;;;;;4153220;28;20201;-80
2021/10/05 04:57:27;;;;;;;11.43;5.00;;;12.50;99.90;;;;;;4139333;28;20314;-79
2021/10/05 04:59:29;;;;;;;9.50;5.07;;;12.50;99.90;;;;;;4140443;28;20231;-80
2021/10/05 05:01:31;;;;;;;10.03;5.03;;;12.50;99.90;;;;;;4154715;28;20222;-79
2021/10/05 05:03:33;;;;;;;7.93;4.70;;;12.50;99.90;;;;;;4154918;28;20227;-80
2021/10/05 05:05:35;;;;;;;8.20;4.67;;;12.50;99.90;;;;;;4155924;28;20223;-79
2021/10/05 05:07:37;;;;;;;7.80;4.13;;;12.40;99.90;;;;;;4132877;28;20208;-80
2021/10/05 05:09:40;;;;;;;7.03;4.10;;;12.40;99.90;;;;;;4145586;28;20779;-79
2021/10/05 05:11:41;;;;;;;8.47;4.17;;;12.40;99.90;;;;;;4145092;28;20249;-80
2021/10/05 05:13:43;;;;;;;7.43;4.47;;;12.40;99.90;;;;;;4134754;28;20211;-80
2021/10/05 05:15:45;;;;;;;6.97;4.40;;;12.40;99.90;;;;;;4130385;28;20641;-80
2021/10/05 05:17:47;;;;;;;9.57;4.70;;;12.40;99.90;;;;;;4148060;28;20552;-80
2021/10/05 05:19:48;;;;;;;10.20;4.73;;;12.40;99.90;;;;;;4151648;28;20234;-80
2021/10/05 05:21:50;;;;;;;7.57;4.33;;;12.40;99.90;;;;;;4145870;28;20298;-80
2021/10/05 05:23:52;;;;;;;7.93;4.40;;;12.30;99.90;;;;;;4141049;28;20255;-80
2021/10/05 05:25:55;;;;;;;6.53;4.23;;;12.30;99.90;;;;;;4136565;28;20667;-80
2021/10/05 05:27:57;;;;;;;8.10;4.17;;;12.30;99.90;;;;;;4150077;28;20625;-80
2021/10/05 05:29:59;;;;;;;7.17;4.40;;;12.30;99.90;;;;;;4153706;28;20231;-80
2021/10/05 05:32:01;;;;;;;8.97;4.50;;;12.30;99.90;;;;;;4138646;28;20216;-80
2021/10/05 05:34:02;;;;;;;6.73;3.70;;;12.30;99.90;;;;;;4155893;28;20269;-80
2021/10/05 05:36:05;;;;;;;10.70;4.33;;;12.30;99.90;;;;;;4147635;28;20222;-80
2021/10/05 05:38:06;;;;;;;7.20;3.63;;;12.30;99.90;;;;;;4136907;28;20213;-80
2021/10/05 05:40:09;;;;;;;6.70;4.13;;;12.30;99.90;;;;;;4139188;28;20301;-80
2021/10/05 05:42:13;;;;;;;6.60;3.80;;;12.30;99.90;;;;;;4145684;28;20259;-80
2021/10/05 05:44:15;;;;;;;7.57;4.17;;;12.40;99.90;;;;;;4149473;28;20280;-80
2021/10/05 05:46:17;;;;;;;8.20;4.33;;;12.30;99.90;;;;;;4151077;28;20446;-80
2021/10/05 05:48:18;;;;;;;6.57;3.77;;;12.30;99.90;;;;;;4149227;28;20281;-80
2021/10/05 05:50:20;;;;;;;8.33;3.90;;;12.30;99.90;;;;;;4136707;28;20247;-80
2021/10/05 05:52:22;;;;;;;7.83;4.57;;;12.30;99.90;;;;;;4132165;28;20198;-80
2021/10/05 05:54:24;;;;;;;6.93;3.90;;;12.40;99.90;;;;;;4133168;28;20238;-80
2021/10/05 05:56:26;;;;;;;7.73;4.00;;;12.30;99.90;;;;;;4148216;28;20215;-80
2021/10/05 05:58:29;;;;;;;7.27;3.83;;;12.30;99.90;;;;;;4159223;28;20627;-80
2021/10/05 06:00:30;;;;;;;7.13;4.47;;;12.30;99.90;;;;;;4151253;28;20656;-81
2021/10/05 06:02:32;;;;;;;8.00;4.10;;;12.40;99.90;;;;;;4144366;28;20239;-80
2021/10/05 06:04:34;;;;;;;9.37;4.00;;;12.40;99.90;;;;;;4153588;28;20215;-80
2021/10/05 06:06:35;;;;;;;8.23;4.37;;;12.40;99.90;;;;;;4146876;28;20219;-80
2021/10/05 06:08:37;;;;;;;7.57;4.30;;;12.40;99.90;;;;;;4142594;28;20668;-80
2021/10/05 06:10:39;;;;;;;6.80;4.10;;;12.40;99.90;;;;;;4150085;28;20287;-81
2021/10/05 06:12:41;;;;;;;6.03;3.73;;;12.40;99.90;;;;;;4145956;28;20248;-81
2021/10/05 06:14:44;;;;;;;7.33;3.83;;;12.40;99.90;;;;;;4138325;28;20690;-81
2021/10/05 06:16:46;;;;;;;7.37;4.33;;;12.40;99.90;;;;;;4143604;28;20206;-81
2021/10/05 06:18:48;;;;;;;8.50;4.60;;;12.40;99.90;;;;;;4148481;28;20229;-81
2021/10/05 06:20:49;;;;;;;6.70;4.20;;;12.40;99.90;;;;;;4135608;28;20263;-81
2021/10/05 06:22:52;;;;;;;7.07;4.37;;;12.40;99.90;;;;;;4138738;28;20219;-81
2021/10/05 06:24:54;;;;;;;7.33;4.27;;;12.40;99.90;;;;;;4145280;28;20205;-81
2021/10/05 06:26:56;;;;;;;7.13;4.27;;;12.40;99.90;;;;;;4143251;28;20238;-81
2021/10/05 06:28:57;;;;;;;5.67;3.93;;;12.40;99.90;;;;;;4151473;28;20215;-81
2021/10/05 06:31:01;;;;;;;8.37;4.43;;;12.40;99.90;;;;;;4149000;28;20772;-81
2021/10/05 06:33:03;;;;;;;10.40;5.23;;;12.40;99.90;;;;;;4157210;28;20217;-81
2021/10/05 06:35:06;;;;;;;11.30;5.77;;;12.40;99.90;;;;;;4145495;28;20212;-82
2021/10/05 06:37:08;;;;;;;9.83;5.07;;;12.40;99.90;;;;;;4144946;28;20207;-81
2021/10/05 06:39:10;;;;;;;9.03;4.90;;;12.40;99.90;;;;;;4143831;28;20205;-81
2021/10/05 06:41:12;;;;;;;8.13;4.33;;;12.40;99.90;;;;;;4143261;28;20215;-81
2021/10/05 06:43:14;;;;;;;8.23;4.47;;;12.40;99.90;;;;;;4149178;28;20231;-81
2021/10/05 06:45:16;;;;;;;7.80;4.63;;;12.40;99.90;;;;;;4141881;28;20290;-81
2021/10/05 06:47:19;;;;;;;9.97;4.70;;;12.40;99.90;;;;;;4149082;28;20219;-81
2021/10/05 06:49:21;;;;;;;8.57;4.90;;;12.40;99.90;;;;;;4146665;28;20204;-81
2021/10/05 06:51:23;;;;;;;7.77;4.63;;;12.40;99.90;;;;;;4144156;28;20287;-81
2021/10/05 06:53:25;;;;;;;9.10;4.80;;;12.40;99.90;;;;;;4150316;28;20294;-81
2021/10/05 06:55:27;;;;;;;11.03;5.50;;;12.40;99.90;;;;;;4147186;28;20271;-81
2021/10/05 06:57:28;;;;;;;9.77;5.30;;;12.40;99.90;;;;;;4146852;28;20648;-81
2021/10/05 06:59:30;;;;;;;11.80;5.50;;;12.40;99.90;;;;;;4141908;28;20239;-82
2021/10/05 07:01:32;;;;;;;9.60;5.53;;;12.40;99.90;;;;;;4147549;28;20223;-81
2021/10/05 07:03:35;;;;;;;8.57;5.30;;;12.40;99.90;;;;;;4143397;28;20239;-81
2021/10/05 07:05:37;;;;;;;10.53;5.83;;;12.50;99.90;;;;;;4144836;28;20215;-82
2021/10/05 07:07:40;;;;;;;10.10;5.47;;;12.40;99.90;;;;;;4141764;28;20216;-81
2021/10/05 07:09:41;;;;;;;9.87;5.57;;;12.40;99.90;;;;;;4147752;28;20584;-82
2021/10/05 07:11:45;;;;;;;10.13;5.00;;;12.40;99.90;;;;;;4146094;28;20215;-82
2021/10/05 07:13:46;;;;;;;8.87;5.27;;;12.40;99.90;;;;;;4146330;28;20241;-82
2021/10/05 07:15:48;;;;;;;8.00;4.97;;;12.40;99.90;;;;;;4142177;28;20759;-82
2021/10/05 07:17:53;;;;;;;9.37;5.00;;;12.40;99.90;;;;;;4143785;28;20222;-83
2021/10/05 07:19:56;;;;;;;8.70;5.63;;;12.40;99.90;;;;;;4145262;28;20313;-83
2021/10/05 07:21:58;;;;;;;9.73;5.17;;;12.40;99.90;;;;;;4144969;28;20219;-83
2021/10/05 07:23:59;;;;;;;10.33;5.60;;;12.40;99.90;;;;;;4142308;28;20240;-83
2021/10/05 07:26:01;;;;;;;10.20;5.57;;;12.40;99.90;;;;;;4143968;28;20215;-84
2021/10/05 07:28:03;;;;;;;7.77;5.13;;;12.40;99.90;;;;;;4146035;28;20239;-83
2021/10/05 07:30:06;;;;;;;9.20;5.47;;;12.40;99.90;;;;;;4146263;28;20696;-84
2021/10/05 07:32:09;;;;;;;9.43;5.50;;;12.40;99.90;;;;;;4145953;28;20222;-84
2021/10/05 07:34:10;;;;;;;9.67;5.83;;;12.40;99.90;;;;;;4141225;28;20219;-84
2021/10/05 07:36:16;;;;;;;9.07;5.37;;;12.70;99.90;;;;;;4145264;28;20331;-84
2021/10/05 07:38:18;;;;;;;11.40;5.83;;;12.40;99.90;;;;;;4146089;28;20794;-84
2021/10/05 07:40:21;;;;;;;9.83;5.67;;;12.40;99.90;;;;;;4139817;28;20737;-85
2021/10/05 07:42:23;;;;;;;9.40;5.80;;;12.90;99.90;;;;;;4135751;28;20212;-85
2021/10/05 07:44:25;;;;;;;11.03;6.47;;;12.40;99.90;;;;;;4139184;28;20234;-85
2021/10/05 07:46:26;;;;;;;11.93;6.67;;;12.40;99.90;;;;;;4140367;28;20576;-85
2021/10/05 07:48:29;;;;;;;12.07;6.07;;;12.40;99.90;;;;;;4146926;28;20218;-86
2021/10/05 07:50:31;;;;;;;10.77;6.13;;;12.40;99.90;;;;;;4157599;28;20559;-86
2021/10/05 07:52:34;;;;;;;10.90;6.60;;;12.60;99.90;;;;;;4160030;28;20210;-87
2021/10/05 07:54:36;;;;;;;11.47;6.50;;;12.40;99.90;;;;;;4152349;28;20211;-87
2021/10/05 07:56:38;;;;;;;10.37;6.50;;;12.40;99.90;;;;;;4137008;28;20267;-87
2021/10/05 07:58:40;;;;;;;10.43;6.10;;;12.40;99.90;;;;;;4148804;28;20633;-87
2021/10/05 08:00:42;;;;;;;13.47;6.47;;;12.40;99.90;;;;;;4148825;28;20242;-88
2021/10/05 08:02:45;;;;;;;11.37;6.40;;;12.40;99.90;;;;;;4143709;28;20220;-87
2021/10/05 08:04:47;;;;;;;10.33;6.57;;;12.40;99.90;;;;;;4143899;28;20210;-88
2021/10/05 08:06:48;;;;;;;11.13;6.47;;;12.40;99.90;;;;;;4143735;28;20669;-88
2021/10/05 08:08:51;;;;;;;9.97;6.70;;;12.40;99.90;;;;;;4140235;28;20251;-88
2021/10/05 08:10:53;;;;;;;10.53;6.40;;;12.40;99.90;;;;;;4139592;28;20236;-89
2021/10/05 08:12:55;;;;;;;10.00;6.60;;;12.40;99.90;;;;;;4152918;28;20218;-89
2021/10/05 08:14:57;;;;;;;11.13;7.20;;;12.40;99.90;;;;;;4142785;28;20221;-89
2021/10/05 08:16:59;;;;;;;11.30;7.17;;;12.40;99.90;;;;;;4142455;28;20211;-90
2021/10/05 08:19:01;;;;;;;12.97;7.47;;;12.40;99.90;;;;;;4142129;28;20592;-89
2021/10/05 08:21:03;;;;;;;11.00;6.43;;;12.40;99.90;;;;;;4149173;28;20300;-89
2021/10/05 08:23:06;;;;;;;9.83;6.67;;;12.40;99.90;;;;;;4130410;28;20208;-89
2021/10/05 08:25:10;;;;;;;10.20;7.03;;;12.40;99.90;;;;;;4132879;28;20842;-87
2021/10/05 08:27:11;;;;;;;12.53;6.40;;;12.40;99.90;;;;;;4141434;28;20222;-89
2021/10/05 08:29:13;;;;;;;11.07;6.83;;;12.50;99.90;;;;;;4135506;28;20207;-88
2021/10/05 08:31:18;;;;;;;10.77;7.17;;;12.50;99.90;;;;;;4139972;28;20862;-89
2021/10/05 08:33:20;;;;;;;11.27;6.63;;;12.50;99.90;;;;;;4139183;28;20488;-90
2021/10/05 08:35:22;;;;;;;12.03;6.90;;;12.50;99.90;;;;;;4135777;28;20222;-90
2021/10/05 08:37:23;;;;;;;10.80;6.20;;;12.60;99.90;;;;;;4136751;28;20669;-90
2021/10/05 08:39:25;;;;;;;10.83;6.73;;;12.50;99.90;;;;;;4139447;28;20234;-89
2021/10/05 08:41:28;;;;;;;10.10;7.13;;;12.50;99.90;;;;;;4138559;28;20682;-90
2021/10/05 08:43:30;;;;;;;11.33;6.97;;;12.50;99.90;;;;;;4139123;28;20227;-89
2021/10/05 08:45:32;;;;;;;14.60;7.43;;;12.70;99.90;;;;;;4134190;28;20219;-90
2021/10/05 08:47:34;;;;;;;11.63;7.53;;;12.50;99.90;;;;;;4139548;28;20554;-90
2021/10/05 08:49:36;;;;;;;15.60;8.13;;;12.50;99.90;;;;;;4133331;28;20241;-90
2021/10/05 08:51:39;;;;;;;13.57;8.87;;;12.50;99.90;;;;;;4133774;28;20223;-90
2021/10/05 08:53:42;;;;;;;12.30;7.97;;;12.50;99.90;;;;;;4144475;28;20740;-89
2021/10/05 08:55:46;;;;;;;15.10;8.33;;;12.50;99.90;;;;;;4145243;28;20219;-89
2021/10/05 08:57:50;;;;;;;13.03;8.07;;;12.50;99.90;;;;;;4151826;28;20213;-88
2021/10/05 08:59:51;;;;;;;13.60;8.90;;;12.40;99.90;;;;;;4142659;28;20616;-89
2021/10/05 09:01:53;;;;;;;11.77;9.03;;;12.40;99.90;;;;;;4144238;28;20231;-89
2021/10/05 09:03:56;;;;;;;12.10;7.40;;;12.40;99.90;;;;;;4140849;28;20670;-89
2021/10/05 09:06:08;;;;;;;11.53;8.13;;;12.40;99.90;;;;;;4144103;28;20218;-88
2021/10/05 09:08:10;;;;;;;12.00;8.17;;;12.40;99.90;;;;;;4145733;28;20260;-84
2021/10/05 09:10:12;;;;;;;13.07;8.00;;;12.40;99.90;;;;;;4136501;28;20292;-86
2021/10/05 09:12:22;;;;;;;13.40;7.80;;;12.40;99.90;;;;;;4139896;28;20689;-86
2021/10/05 09:14:36;;;;;;;11.20;7.87;;;12.40;99.90;;;;;;4143855;28;20195;-86
2021/10/05 09:16:38;;;;;;;11.57;7.80;;;12.40;99.90;;;;;;4141749;28;20227;-86
2021/10/05 09:18:50;;;;;;;12.33;8.27;;;12.30;99.90;;;;;;4143935;28;20223;-85
2021/10/05 09:20:52;;;;;;;12.20;8.30;;;12.30;99.90;;;;;;4142567;28;20246;-87
2021/10/05 09:23:08;;;;;;;12.77;9.20;;;12.20;99.90;;;;;;4130138;28;20277;-86
2021/10/05 09:25:10;;;;;;;14.00;8.90;;;12.30;99.90;;;;;;4139072;28;20227;-85
2021/10/05 09:27:12;;;;;;;12.07;8.53;;;12.30;99.90;;;;;;4145188;28;20226;-84
2021/10/05 09:29:17;;;;;;;12.30;8.47;;;12.30;99.90;;;;;;4150390;28;20208;-84
2021/10/05 09:31:20;;;;;;;12.80;8.43;;;12.30;99.90;;;;;;4145366;28;20274;-85
2021/10/05 09:33:22;;;;;;;13.43;9.13;;;12.30;99.90;;;;;;4149051;28;20226;-84
2021/10/05 09:35:24;;;;;;;11.90;8.00;;;12.20;99.90;;;;;;4146989;28;20641;-83
2021/10/05 09:37:27;;;;;;;13.40;8.27;;;12.30;99.90;;;;;;4152749;28;20218;-84
2021/10/05 09:39:37;;;;;;;11.80;8.13;;;12.10;99.90;;;;;;4148007;28;20289;-84
2021/10/05 09:41:38;;;;;;;13.13;9.27;;;12.20;99.90;;;;;;4155195;28;20686;-83
2021/10/05 09:43:42;;;;;;;13.73;8.20;;;12.20;99.90;;;;;;4151797;28;20235;-84
2021/10/05 09:45:43;;;;;;;13.80;8.83;;;12.20;99.90;;;;;;4155635;28;20235;-84
2021/10/05 09:47:50;;;;;;;13.50;9.00;;;12.20;99.90;;;;;;4148059;28;20215;-83
2021/10/05 09:49:51;;;;;;;13.33;9.47;;;12.20;99.90;;;;;;4155396;28;20286;-84
2021/10/05 09:51:57;;;;;;;16.33;9.53;;;12.20;99.90;;;;;;4142474;28;20335;-83
2021/10/05 09:53:59;;;;;;;15.10;10.13;;;12.20;99.90;;;;;;4147853;28;20206;-82
2021/10/05 09:56:01;;;;;;;15.40;10.57;;;12.20;99.90;;;;;;4152750;28;20220;-82
2021/10/05 09:58:03;;;;;;;16.77;10.27;;;12.20;99.90;;;;;;4143430;28;20664;-82
2021/10/05 10:00:07;;;;;;;11.93;8.97;;;12.10;99.90;;;;;;4142629;28;20701;-84
2021/10/05 10:02:16;;;;;;;13.37;9.27;;;12.10;99.90;;;;;;4149292;28;20233;-84
2021/10/05 10:04:23;;;;;;;14.97;9.60;;;12.10;99.90;;;;;;4148273;28;20231;-83
2021/10/05 10:06:26;;;;;;;12.43;8.80;;;12.10;99.90;;;;;;4144454;28;20219;-83
2021/10/05 10:08:31;;;;;;;14.27;9.73;;;12.20;99.90;;;;;;4143185;28;20239;-86
2021/10/05 10:10:35;;;;;;;14.03;9.97;;;12.10;99.90;;;;;;4142246;28;20259;-84
2021/10/05 10:12:37;;;;;;;14.13;9.77;;;12.10;99.90;;;;;;4140079;28;20219;-84
2021/10/05 10:14:39;;;;;;;13.87;10.00;;;12.00;99.90;;;;;;4155531;28;20281;-83
2021/10/05 10:16:41;;;;;;;15.03;9.37;;;12.30;99.90;;;;;;4151318;28;20214;-83
2021/10/05 10:18:54;;;;;;;13.33;8.87;;;12.00;99.90;;;;;;4146781;28;20222;-83
2021/10/05 10:21:05;;;;;;;13.37;8.93;;;12.00;99.90;;;;;;4154583;28;20284;-82
2021/10/05 10:23:18;;;;;;;12.90;8.90;;;12.00;99.90;;;;;;4147732;28;20327;-85
2021/10/05 10:25:22;;;;;;;12.53;8.90;;;12.00;99.90;;;;;;4157845;28;20229;-82
2021/10/05 10:27:24;;;;;;;15.67;9.40;;;12.00;99.90;;;;;;4164744;28;20244;-83
2021/10/05 10:29:30;;;;;;;15.27;9.07;;;12.50;99.90;;;;;;4146653;28;20246;-84
2021/10/05 10:31:36;;;;;;;13.10;8.10;;;12.00;99.90;;;;;;4148923;28;20282;-83